createdAt,value
2023-04-23T00:00:29.461Z,0.00
2023-04-23T00:01:29.477Z,0.00
2023-04-23T00:02:29.802Z,0.00
2023-04-23T00:03:29.683Z,0.00
2023-04-23T00:04:29.566Z,0.00
2023-04-23T00:05:29.479Z,0.00
2023-04-23T00:06:32.070Z,0.00
2023-04-23T00:07:29.363Z,0.00
2023-04-23T00:08:29.430Z,0.00
2023-04-23T00:09:29.356Z,0.00
2023-04-23T00:10:29.364Z,0.00
2023-04-23T00:11:29.351Z,0.00
2023-04-23T00:12:29.392Z,0.00
2023-04-23T00:13:29.329Z,0.00
2023-04-23T00:14:29.402Z,0.00
2023-04-23T00:15:29.304Z,0.00
2023-04-23T00:16:29.365Z,0.00
2023-04-23T00:17:29.307Z,0.00
2023-04-23T00:18:29.275Z,0.00
2023-04-23T00:19:29.228Z,0.00
2023-04-23T00:20:29.223Z,0.00
2023-04-23T00:21:29.223Z,0.00
2023-04-23T00:22:29.210Z,0.00
2023-04-23T00:23:29.182Z,0.00
2023-04-23T00:24:29.192Z,0.00
2023-04-23T00:25:29.154Z,0.00
2023-04-23T00:26:29.170Z,0.00
2023-04-23T00:27:29.138Z,0.00
2023-04-23T00:28:29.127Z,0.00
2023-04-23T00:29:29.125Z,0.00
2023-04-23T00:30:29.134Z,0.00
2023-04-23T00:31:29.171Z,0.00
2023-04-23T00:32:29.104Z,0.00
2023-04-23T00:33:29.070Z,0.00
2023-04-23T00:34:29.059Z,0.00
2023-04-23T00:35:29.066Z,0.00
2023-04-23T00:36:29.051Z,0.00
2023-04-23T00:37:29.018Z,0.00
2023-04-23T00:38:29.010Z,0.00
2023-04-23T00:39:29.017Z,0.00
2023-04-23T00:40:28.992Z,0.00
2023-04-23T00:41:28.992Z,0.00
2023-04-23T00:42:28.973Z,0.00
2023-04-23T00:43:28.948Z,0.00
2023-04-23T00:44:28.940Z,0.00
2023-04-23T00:45:29.005Z,0.00
2023-04-23T00:46:28.925Z,0.00
2023-04-23T00:47:28.929Z,0.00
2023-04-23T00:48:28.914Z,0.00
2023-04-23T00:49:28.885Z,0.00
2023-04-23T00:50:28.895Z,0.00
2023-04-23T00:51:28.857Z,0.00
2023-04-23T00:52:28.871Z,0.00
2023-04-23T00:53:28.868Z,0.00
2023-04-23T00:54:28.841Z,0.00
2023-04-23T00:55:28.816Z,0.00
2023-04-23T00:56:28.828Z,0.00
2023-04-23T00:57:28.800Z,0.00
2023-04-23T00:58:28.782Z,0.00
2023-04-23T00:59:28.765Z,0.00
2023-04-23T01:00:28.792Z,0.00
2023-04-23T01:01:28.792Z,0.00
2023-04-23T01:02:28.876Z,0.00
2023-04-23T01:03:28.822Z,0.00
2023-04-23T01:04:28.718Z,0.00
2023-04-23T01:05:28.720Z,0.00
2023-04-23T01:06:28.703Z,0.00
2023-04-23T01:07:28.697Z,0.00
2023-04-23T01:08:28.666Z,0.00
2023-04-23T01:09:28.702Z,0.00
2023-04-23T01:10:28.668Z,0.00
2023-04-23T01:11:28.648Z,0.00
2023-04-23T01:12:28.645Z,0.00
2023-04-23T01:13:28.612Z,0.00
2023-04-23T01:14:28.625Z,0.00
2023-04-23T01:15:28.628Z,0.00
2023-04-23T01:16:28.611Z,0.00
2023-04-23T01:17:28.618Z,0.00
2023-04-23T01:18:28.629Z,0.00
2023-04-23T01:19:28.546Z,0.00
2023-04-23T01:20:28.534Z,0.00
2023-04-23T01:21:28.523Z,0.00
2023-04-23T01:22:28.538Z,0.00
2023-04-23T01:23:28.497Z,0.00
2023-04-23T01:24:28.503Z,0.00
2023-04-23T01:25:28.478Z,0.00
2023-04-23T01:26:28.484Z,0.00
2023-04-23T01:27:28.456Z,0.00
2023-04-23T01:28:28.460Z,0.00
2023-04-23T01:29:28.433Z,0.00
2023-04-23T01:30:28.432Z,0.00
2023-04-23T01:31:28.516Z,0.00
2023-04-23T01:32:28.422Z,0.00
2023-04-23T01:33:28.409Z,0.00
2023-04-23T01:34:28.411Z,0.00
2023-04-23T01:35:28.366Z,0.00
2023-04-23T01:36:28.386Z,0.00
2023-04-23T01:37:28.356Z,0.00
2023-04-23T01:38:28.324Z,0.00
2023-04-23T01:39:28.315Z,0.00
2023-04-23T01:40:28.300Z,0.00
2023-04-23T01:41:28.322Z,0.00
2023-04-23T01:42:28.299Z,0.00
2023-04-23T01:43:28.924Z,0.00
2023-04-23T01:44:28.268Z,0.00
2023-04-23T01:45:28.245Z,0.00
2023-04-23T01:46:28.295Z,0.00
2023-04-23T01:47:31.123Z,0.00
2023-04-23T01:48:28.229Z,0.00
2023-04-23T01:49:28.321Z,0.00
2023-04-23T01:50:28.191Z,0.00
2023-04-23T01:51:28.202Z,0.00
2023-04-23T01:52:28.165Z,0.00
2023-04-23T01:53:28.152Z,0.00
2023-04-23T01:54:28.153Z,0.00
2023-04-23T01:55:28.138Z,0.00
2023-04-23T01:56:28.174Z,0.00
2023-04-23T01:57:28.105Z,0.00
2023-04-23T01:58:28.105Z,0.00
2023-04-23T01:59:28.105Z,0.00
2023-04-23T02:00:28.083Z,0.00
2023-04-23T02:01:28.124Z,0.00
2023-04-23T02:02:28.181Z,0.00
2023-04-23T02:03:28.160Z,0.00
2023-04-23T02:04:28.138Z,0.00
2023-04-23T02:05:28.033Z,0.00
2023-04-23T02:06:28.017Z,0.00
2023-04-23T02:07:28.013Z,0.00
2023-04-23T02:08:27.980Z,0.00
2023-04-23T02:09:27.972Z,0.00
2023-04-23T02:10:27.963Z,0.00
2023-04-23T02:11:27.963Z,0.00
2023-04-23T02:12:27.992Z,0.00
2023-04-23T02:13:27.923Z,0.00
2023-04-23T02:14:27.928Z,0.00
2023-04-23T02:15:27.929Z,0.00
2023-04-23T02:16:27.996Z,0.00
2023-04-23T02:17:27.912Z,0.00
2023-04-23T02:18:27.967Z,0.00
2023-04-23T02:19:27.857Z,0.00
2023-04-23T02:20:27.875Z,0.00
2023-04-23T02:21:27.850Z,0.00
2023-04-23T02:22:27.824Z,0.00
2023-04-23T02:23:27.817Z,0.00
2023-04-23T02:24:27.836Z,0.00
2023-04-23T02:25:27.805Z,0.00
2023-04-23T02:26:27.779Z,0.00
2023-04-23T02:27:27.770Z,0.00
2023-04-23T02:28:27.757Z,0.00
2023-04-23T02:29:27.748Z,0.00
2023-04-23T02:30:27.779Z,0.00
2023-04-23T02:31:27.752Z,0.00
2023-04-23T02:32:27.745Z,0.00
2023-04-23T02:33:27.720Z,0.00
2023-04-23T02:34:27.701Z,0.00
2023-04-23T02:35:27.687Z,0.00
2023-04-23T02:36:27.680Z,0.00
2023-04-23T02:37:27.678Z,0.00
2023-04-23T02:38:27.668Z,0.00
2023-04-23T02:39:27.639Z,0.00
2023-04-23T02:40:27.622Z,0.00
2023-04-23T02:41:27.621Z,0.00
2023-04-23T02:42:27.624Z,0.00
2023-04-23T02:43:27.603Z,0.00
2023-04-23T02:44:27.579Z,0.00
2023-04-23T02:45:27.559Z,0.00
2023-04-23T02:46:27.583Z,0.00
2023-04-23T02:47:27.586Z,0.00
2023-04-23T02:48:27.597Z,0.00
2023-04-23T02:49:27.518Z,0.00
2023-04-23T02:50:27.523Z,0.00
2023-04-23T02:51:27.495Z,0.00
2023-04-23T02:52:27.484Z,0.00
2023-04-23T02:53:27.515Z,0.00
2023-04-23T02:54:27.488Z,0.00
2023-04-23T02:55:27.456Z,0.00
2023-04-23T02:56:27.468Z,0.00
2023-04-23T02:57:27.423Z,0.00
2023-04-23T02:58:27.427Z,0.00
2023-04-23T02:59:27.424Z,0.00
2023-04-23T03:00:27.419Z,0.00
2023-04-23T03:01:27.485Z,0.00
2023-04-23T03:02:27.461Z,0.00
2023-04-23T03:03:27.567Z,0.00
2023-04-23T03:04:27.377Z,0.00
2023-04-23T03:05:27.347Z,0.00
2023-04-23T03:06:27.335Z,0.00
2023-04-23T03:07:27.318Z,0.00
2023-04-23T03:08:27.300Z,0.00
2023-04-23T03:09:27.326Z,0.00
2023-04-23T03:10:27.287Z,0.00
2023-04-23T03:11:27.297Z,0.00
2023-04-23T03:12:27.260Z,0.00
2023-04-23T03:13:27.242Z,0.00
2023-04-23T03:14:27.274Z,0.00
2023-04-23T03:15:27.220Z,0.00
2023-04-23T03:16:27.316Z,0.00
2023-04-23T03:17:27.219Z,0.00
2023-04-23T03:18:27.194Z,0.00
2023-04-23T03:19:27.178Z,0.00
2023-04-23T03:20:27.170Z,0.00
2023-04-23T03:21:27.184Z,0.00
2023-04-23T03:22:27.141Z,0.00
2023-04-23T03:23:27.161Z,0.00
2023-04-23T03:24:27.349Z,0.00
2023-04-23T03:25:27.229Z,0.00
2023-04-23T03:26:27.125Z,0.00
2023-04-23T03:27:27.092Z,0.00
2023-04-23T03:28:27.103Z,0.00
2023-04-23T03:29:27.101Z,0.00
2023-04-23T03:30:27.128Z,0.00
2023-04-23T03:31:27.047Z,4.00
2023-04-23T03:32:27.109Z,0.00
2023-04-23T03:33:27.029Z,0.00
2023-04-23T03:34:27.023Z,4.00
2023-04-23T03:35:27.010Z,4.00
2023-04-23T03:36:27.000Z,0.00
2023-04-23T03:37:26.989Z,4.00
2023-04-23T03:38:26.963Z,4.00
2023-04-23T03:39:26.978Z,4.00
2023-04-23T03:40:26.936Z,4.00
2023-04-23T03:41:27.107Z,4.00
2023-04-23T03:42:26.919Z,4.00
2023-04-23T03:43:26.930Z,4.00
2023-04-23T03:44:26.908Z,8.00
2023-04-23T03:45:26.880Z,8.00
2023-04-23T03:46:26.940Z,8.00
2023-04-23T03:47:26.910Z,12.00
2023-04-23T03:48:26.865Z,16.00
2023-04-23T03:49:26.840Z,20.00
2023-04-23T03:50:26.829Z,20.00
2023-04-23T03:51:26.813Z,24.00
2023-04-23T03:52:26.816Z,32.00
2023-04-23T03:53:26.821Z,40.00
2023-04-23T03:54:26.776Z,44.00
2023-04-23T03:55:26.767Z,48.00
2023-04-23T03:56:27.204Z,56.00
2023-04-23T03:57:26.767Z,64.00
2023-04-23T03:58:26.756Z,72.00
2023-04-23T03:59:26.744Z,80.00
2023-04-23T04:00:26.706Z,88.00
2023-04-23T04:01:26.699Z,96.00
2023-04-23T04:02:26.798Z,108.00
2023-04-23T04:03:27.034Z,116.00
2023-04-23T04:04:27.056Z,128.00
2023-04-23T04:05:26.766Z,140.00
2023-04-23T04:06:26.763Z,152.00
2023-04-23T04:07:26.634Z,164.00
2023-04-23T04:08:26.652Z,176.00
2023-04-23T04:09:26.646Z,184.00
2023-04-23T04:10:26.598Z,196.00
2023-04-23T04:11:26.601Z,208.00
2023-04-23T04:12:26.572Z,220.00
2023-04-23T04:13:26.601Z,228.00
2023-04-23T04:14:26.550Z,244.00
2023-04-23T04:15:26.540Z,252.00
2023-04-23T04:16:26.568Z,256.00
2023-04-23T04:17:26.545Z,268.00
2023-04-23T04:18:26.524Z,276.00
2023-04-23T04:19:26.497Z,284.00
2023-04-23T04:20:26.483Z,296.00
2023-04-23T04:21:26.480Z,300.00
2023-04-23T04:22:26.502Z,312.00
2023-04-23T04:23:26.456Z,316.00
2023-04-23T04:24:26.457Z,316.00
2023-04-23T04:25:26.429Z,320.00
2023-04-23T04:26:26.436Z,324.00
2023-04-23T04:27:26.404Z,332.00
2023-04-23T04:28:26.416Z,336.00
2023-04-23T04:29:26.412Z,340.00
2023-04-23T04:30:26.385Z,348.00
2023-04-23T04:31:26.409Z,352.00
2023-04-23T04:32:26.420Z,356.00
2023-04-23T04:33:26.333Z,364.00
2023-04-23T04:34:26.354Z,368.00
2023-04-23T04:35:26.311Z,368.00
2023-04-23T04:36:26.319Z,372.00
2023-04-23T04:37:26.307Z,376.00
2023-04-23T04:38:26.297Z,376.00
2023-04-23T04:39:26.279Z,384.00
2023-04-23T04:40:26.268Z,392.00
2023-04-23T04:41:26.304Z,408.00
2023-04-23T04:42:26.239Z,424.00
2023-04-23T04:43:26.235Z,444.00
2023-04-23T04:44:26.207Z,468.00
2023-04-23T04:45:26.232Z,488.00
2023-04-23T04:46:26.217Z,516.00
2023-04-23T04:47:26.227Z,544.00
2023-04-23T04:48:26.168Z,564.00
2023-04-23T04:49:26.153Z,592.00
2023-04-23T04:50:26.138Z,620.00
2023-04-23T04:51:26.151Z,648.00
2023-04-23T04:52:26.180Z,676.00
2023-04-23T04:53:26.130Z,704.00
2023-04-23T04:54:26.111Z,728.00
2023-04-23T04:55:26.090Z,752.00
2023-04-23T04:56:26.076Z,772.00
2023-04-23T04:57:26.105Z,792.00
2023-04-23T04:58:26.080Z,816.00
2023-04-23T04:59:26.035Z,836.00
2023-04-23T05:00:26.022Z,860.00
2023-04-23T05:01:26.196Z,884.00
2023-04-23T05:02:26.106Z,904.00
2023-04-23T05:03:26.136Z,924.00
2023-04-23T05:04:25.999Z,948.00
2023-04-23T05:05:28.327Z,972.00
2023-04-23T05:06:26.016Z,1004.00
2023-04-23T05:07:25.943Z,1036.00
2023-04-23T05:08:26.028Z,1068.00
2023-04-23T05:09:25.943Z,1096.00
2023-04-23T05:10:25.927Z,1120.00
2023-04-23T05:11:25.919Z,1144.00
2023-04-23T05:12:25.885Z,1168.00
2023-04-23T05:13:25.907Z,1204.00
2023-04-23T05:14:25.878Z,1252.00
2023-04-23T05:15:25.852Z,1320.00
2023-04-23T05:16:25.872Z,1388.00
2023-04-23T05:17:25.884Z,1444.00
2023-04-23T05:18:25.817Z,1500.00
2023-04-23T05:19:25.830Z,1548.00
2023-04-23T05:20:25.793Z,1604.00
2023-04-23T05:21:25.787Z,1644.00
2023-04-23T05:22:25.804Z,1684.00
2023-04-23T05:23:25.761Z,1696.00
2023-04-23T05:24:25.764Z,1704.00
2023-04-23T05:25:25.742Z,1728.00
2023-04-23T05:26:25.746Z,1764.00
2023-04-23T05:27:25.720Z,1808.00
2023-04-23T05:28:25.745Z,1856.00
2023-04-23T05:29:25.695Z,1920.00
2023-04-23T05:30:25.698Z,1968.00
2023-04-23T05:31:26.986Z,2036.00
2023-04-23T05:32:25.675Z,2108.00
2023-04-23T05:33:28.687Z,2184.00
2023-04-23T05:34:26.651Z,2268.00
2023-04-23T05:35:25.663Z,2332.00
2023-04-23T05:36:25.634Z,2360.00
2023-04-23T05:37:25.600Z,2372.00
2023-04-23T05:38:25.594Z,2372.00
2023-04-23T05:39:25.589Z,2340.00
2023-04-23T05:40:25.582Z,2308.00
2023-04-23T05:41:25.576Z,2288.00
2023-04-23T05:42:25.537Z,2264.00
2023-04-23T05:43:25.571Z,2268.00
2023-04-23T05:44:25.520Z,2300.00
2023-04-23T05:45:25.517Z,2320.00
2023-04-23T05:46:25.580Z,2332.00
2023-04-23T05:47:25.535Z,2336.00
2023-04-23T05:48:25.501Z,2316.00
2023-04-23T05:49:25.519Z,2284.00
2023-04-23T05:50:25.442Z,2240.00
2023-04-23T05:51:25.449Z,2184.00
2023-04-23T05:52:25.426Z,2112.00
2023-04-23T05:53:25.430Z,2048.00
2023-04-23T05:54:25.401Z,1992.00
2023-04-23T05:55:25.393Z,1928.00
2023-04-23T05:56:25.399Z,1792.00
2023-04-23T05:57:25.400Z,1536.00
2023-04-23T05:58:25.356Z,1496.00
2023-04-23T05:59:25.344Z,1480.00
2023-04-23T06:00:25.344Z,1376.00
2023-04-23T06:01:25.357Z,1296.00
2023-04-23T06:02:25.476Z,1160.00
2023-04-23T06:03:25.473Z,1056.00
2023-04-23T06:04:25.465Z,1008.00
2023-04-23T06:05:25.514Z,932.00
2023-04-23T06:06:25.292Z,904.00
2023-04-23T06:07:25.294Z,856.00
2023-04-23T06:08:25.453Z,848.00
2023-04-23T06:09:25.272Z,868.00
2023-04-23T06:10:25.223Z,872.00
2023-04-23T06:11:25.244Z,876.00
2023-04-23T06:12:25.205Z,892.00
2023-04-23T06:13:25.196Z,900.00
2023-04-23T06:14:25.187Z,912.00
2023-04-23T06:15:25.183Z,856.00
2023-04-23T06:16:25.304Z,836.00
2023-04-23T06:17:25.153Z,784.00
2023-04-23T06:18:25.135Z,720.00
2023-04-23T06:19:25.123Z,676.00
2023-04-23T06:20:25.156Z,652.00
2023-04-23T06:21:25.144Z,636.00
2023-04-23T06:22:25.090Z,616.00
2023-04-23T06:23:25.105Z,604.00
2023-04-23T06:24:25.069Z,588.00
2023-04-23T06:25:25.095Z,576.00
2023-04-23T06:26:25.079Z,616.00
2023-04-23T06:27:25.071Z,636.00
2023-04-23T06:28:25.022Z,652.00
2023-04-23T06:29:25.018Z,648.00
2023-04-23T06:30:25.002Z,668.00
2023-04-23T06:31:25.049Z,660.00
2023-04-23T06:32:25.035Z,648.00
2023-04-23T06:33:24.986Z,692.00
2023-04-23T06:34:24.975Z,740.00
2023-04-23T06:35:24.974Z,820.00
2023-04-23T06:36:24.983Z,900.00
2023-04-23T06:37:24.944Z,984.00
2023-04-23T06:38:24.918Z,1052.00
2023-04-23T06:39:24.917Z,1148.00
2023-04-23T06:40:24.915Z,1240.00
2023-04-23T06:41:24.902Z,1296.00
2023-04-23T06:42:26.388Z,1384.00
2023-04-23T06:43:24.860Z,2324.00
2023-04-23T06:44:24.843Z,2516.00
2023-04-23T06:45:24.849Z,3104.00
2023-04-23T06:46:24.925Z,3336.00
2023-04-23T06:47:24.843Z,3552.00
2023-04-23T06:48:24.797Z,3540.00
2023-04-23T06:49:24.787Z,3664.00
2023-04-23T06:50:24.806Z,3864.00
2023-04-23T06:51:24.791Z,3756.00
2023-04-23T06:52:24.772Z,3948.00
2023-04-23T06:53:24.765Z,4052.00
2023-04-23T06:54:24.739Z,3768.00
2023-04-23T06:55:24.726Z,3700.00
2023-04-23T06:56:24.760Z,4016.00
2023-04-23T06:57:24.736Z,3912.00
2023-04-23T06:58:24.691Z,3920.00
2023-04-23T06:59:24.679Z,3896.00
2023-04-23T07:00:24.677Z,3812.00
2023-04-23T07:01:24.726Z,3716.00
2023-04-23T07:02:24.715Z,3696.00
2023-04-23T07:03:24.676Z,3744.00
2023-04-23T07:04:24.703Z,3732.00
2023-04-23T07:05:24.637Z,3684.00
2023-04-23T07:06:24.603Z,3652.00
2023-04-23T07:07:24.611Z,3172.00
2023-04-23T07:08:24.611Z,3520.00
2023-04-23T07:09:24.642Z,3232.00
2023-04-23T07:10:24.582Z,3256.00
2023-04-23T07:11:24.567Z,3376.00
2023-04-23T07:12:24.550Z,3348.00
2023-04-23T07:13:24.555Z,3568.00
2023-04-23T07:14:24.542Z,3476.00
2023-04-23T07:15:24.562Z,3212.00
2023-04-23T07:16:24.569Z,3696.00
2023-04-23T07:17:24.567Z,3948.00
2023-04-23T07:18:25.480Z,3980.00
2023-04-23T07:19:24.473Z,3436.00
2023-04-23T07:20:24.498Z,3908.00
2023-04-23T07:21:24.468Z,3784.00
2023-04-23T07:22:24.437Z,3920.00
2023-04-23T07:23:24.427Z,3924.00
2023-04-23T07:24:24.448Z,4000.00
2023-04-23T07:25:24.426Z,3944.00
2023-04-23T07:26:24.423Z,4096.00
2023-04-23T07:27:24.390Z,4116.00
2023-04-23T07:28:24.373Z,4224.00
2023-04-23T07:29:24.362Z,4112.00
2023-04-23T07:30:24.475Z,4220.00
2023-04-23T07:31:24.366Z,3520.00
2023-04-23T07:32:24.455Z,3716.00
2023-04-23T07:33:24.385Z,3520.00
2023-04-23T07:34:24.334Z,3592.00
2023-04-23T07:35:24.301Z,3844.00
2023-04-23T07:36:24.624Z,3228.00
2023-04-23T07:37:24.272Z,2912.00
2023-04-23T07:38:24.286Z,2800.00
2023-04-23T07:39:24.263Z,3024.00
2023-04-23T07:40:24.248Z,2676.00
2023-04-23T07:41:24.251Z,2488.00
2023-04-23T07:42:24.214Z,2300.00
2023-04-23T07:43:24.227Z,2156.00
2023-04-23T07:44:24.414Z,2160.00
2023-04-23T07:45:24.180Z,2248.00
2023-04-23T07:46:24.194Z,2268.00
2023-04-23T07:47:24.181Z,2272.00
2023-04-23T07:48:24.190Z,2284.00
2023-04-23T07:49:24.458Z,2560.00
2023-04-23T07:50:24.165Z,2412.00
2023-04-23T07:51:24.418Z,2724.00
2023-04-23T07:52:24.105Z,2720.00
2023-04-23T07:53:24.105Z,2592.00
2023-04-23T07:54:25.654Z,2852.00
2023-04-23T07:55:24.064Z,2708.00
2023-04-23T07:56:24.058Z,2628.00
2023-04-23T07:57:24.071Z,2408.00
2023-04-23T07:58:24.062Z,2464.00
2023-04-23T07:59:24.025Z,2428.00
2023-04-23T08:00:24.034Z,2484.00
2023-04-23T08:01:24.005Z,2912.00
2023-04-23T08:02:24.126Z,3024.00
2023-04-23T08:03:24.266Z,3260.00
2023-04-23T08:04:24.322Z,3136.00
2023-04-23T08:05:23.991Z,3080.00
2023-04-23T08:06:23.945Z,3028.00
2023-04-23T08:07:23.954Z,3020.00
2023-04-23T08:08:23.940Z,3080.00
2023-04-23T08:09:23.913Z,3148.00
2023-04-23T08:10:23.990Z,3196.00
2023-04-23T08:11:23.893Z,3208.00
2023-04-23T08:12:23.903Z,3332.00
2023-04-23T08:13:23.889Z,3560.00
2023-04-23T08:14:23.899Z,3460.00
2023-04-23T08:15:23.881Z,3392.00
2023-04-23T08:16:23.956Z,3332.00
2023-04-23T08:17:23.867Z,3324.00
2023-04-23T08:18:23.835Z,3292.00
2023-04-23T08:19:23.798Z,3228.00
2023-04-23T08:20:23.869Z,3272.00
2023-04-23T08:21:23.783Z,3452.00
2023-04-23T08:22:23.807Z,3536.00
2023-04-23T08:23:23.770Z,3288.00
2023-04-23T08:24:23.769Z,3044.00
2023-04-23T08:25:23.720Z,3064.00
2023-04-23T08:26:23.742Z,2708.00
2023-04-23T08:27:23.736Z,2384.00
2023-04-23T08:28:23.707Z,2208.00
2023-04-23T08:29:23.707Z,2160.00
2023-04-23T08:30:23.710Z,2024.00
2023-04-23T08:31:27.066Z,1928.00
2023-04-23T08:32:23.732Z,1816.00
2023-04-23T08:33:23.632Z,1820.00
2023-04-23T08:34:23.630Z,1844.00
2023-04-23T08:35:23.614Z,1936.00
2023-04-23T08:36:23.599Z,2012.00
2023-04-23T08:37:30.946Z,1980.00
2023-04-23T08:38:24.626Z,2012.00
2023-04-23T08:39:23.578Z,2100.00
2023-04-23T08:40:23.556Z,2160.00
2023-04-23T08:41:23.544Z,2260.00
2023-04-23T08:42:23.540Z,2160.00
2023-04-23T08:43:23.551Z,2072.00
2023-04-23T08:44:23.527Z,2084.00
2023-04-23T08:45:23.533Z,2120.00
2023-04-23T08:46:23.513Z,2160.00
2023-04-23T08:47:23.496Z,2228.00
2023-04-23T08:48:23.479Z,2328.00
2023-04-23T08:49:23.459Z,2428.00
2023-04-23T08:50:23.442Z,2432.00
2023-04-23T08:51:23.422Z,2464.00
2023-04-23T08:52:23.419Z,2396.00
2023-04-23T08:53:23.416Z,2348.00
2023-04-23T08:54:23.391Z,2356.00
2023-04-23T08:55:23.408Z,2404.00
2023-04-23T08:56:23.371Z,2496.00
2023-04-23T08:57:23.355Z,2524.00
2023-04-23T08:58:23.344Z,2444.00
2023-04-23T08:59:23.331Z,2408.00
2023-04-23T09:00:23.533Z,2356.00
2023-04-23T09:01:23.363Z,2328.00
2023-04-23T09:02:23.369Z,2324.00
2023-04-23T09:03:23.397Z,2264.00
2023-04-23T09:04:23.272Z,2160.00
2023-04-23T09:05:23.302Z,2176.00
2023-04-23T09:06:23.251Z,2332.00
2023-04-23T09:07:23.252Z,2612.00
2023-04-23T09:08:23.237Z,2868.00
2023-04-23T09:09:23.223Z,3016.00
2023-04-23T09:10:23.315Z,3112.00
2023-04-23T09:11:23.192Z,3312.00
2023-04-23T09:12:23.217Z,3432.00
2023-04-23T09:13:23.191Z,3480.00
2023-04-23T09:14:23.171Z,3488.00
2023-04-23T09:15:23.144Z,3448.00
2023-04-23T09:16:23.161Z,3336.00
2023-04-23T09:17:23.218Z,3088.00
2023-04-23T09:18:23.138Z,2828.00
2023-04-23T09:19:23.113Z,2656.00
2023-04-23T09:20:23.111Z,2424.00
2023-04-23T09:21:23.084Z,2256.00
2023-04-23T09:22:23.096Z,2148.00
2023-04-23T09:23:23.075Z,2080.00
2023-04-23T09:24:23.093Z,2016.00
2023-04-23T09:25:23.050Z,1984.00
2023-04-23T09:26:23.061Z,1916.00
2023-04-23T09:27:23.034Z,1852.00
2023-04-23T09:28:23.015Z,1784.00
2023-04-23T09:29:22.992Z,1704.00
2023-04-23T09:30:22.984Z,1684.00
2023-04-23T09:31:22.991Z,1732.00
2023-04-23T09:32:23.261Z,1812.00
2023-04-23T09:33:22.966Z,1880.00
2023-04-23T09:34:22.951Z,1936.00
2023-04-23T09:35:22.972Z,2004.00
2023-04-23T09:36:22.932Z,2080.00
2023-04-23T09:37:22.912Z,2132.00
2023-04-23T09:38:22.894Z,2180.00
2023-04-23T09:39:22.879Z,2208.00
2023-04-23T09:40:22.903Z,2248.00
2023-04-23T09:41:22.855Z,2260.00
2023-04-23T09:42:22.864Z,2276.00
2023-04-23T09:43:22.849Z,2280.00
2023-04-23T09:44:22.960Z,2256.00
2023-04-23T09:45:22.853Z,2228.00
2023-04-23T09:46:22.862Z,2224.00
2023-04-23T09:47:25.036Z,2236.00
2023-04-23T09:48:22.819Z,2336.00
2023-04-23T09:49:22.777Z,2444.00
2023-04-23T09:50:22.750Z,2568.00
2023-04-23T09:51:22.754Z,2644.00
2023-04-23T09:52:22.752Z,2696.00
2023-04-23T09:53:22.735Z,2748.00
2023-04-23T09:54:22.754Z,2828.00
2023-04-23T09:55:22.720Z,2896.00
2023-04-23T09:56:22.682Z,2960.00
2023-04-23T09:57:22.664Z,3024.00
2023-04-23T09:58:22.664Z,3032.00
2023-04-23T09:59:29.357Z,3020.00
2023-04-23T10:00:23.635Z,2968.00
2023-04-23T10:01:22.705Z,2940.00
2023-04-23T10:02:22.686Z,2900.00
2023-04-23T10:03:22.735Z,2844.00
2023-04-23T10:04:22.765Z,2828.00
2023-04-23T10:05:27.294Z,2816.00
2023-04-23T10:06:40.878Z,2848.00
2023-04-23T10:07:23.574Z,2900.00
2023-04-23T10:08:22.543Z,2952.00
2023-04-23T10:09:22.530Z,2976.00
2023-04-23T10:10:22.565Z,2984.00
2023-04-23T10:11:22.528Z,3012.00
2023-04-23T10:12:39.692Z,3072.00
2023-04-23T10:13:23.477Z,3128.00
2023-04-23T10:14:22.472Z,3248.00
2023-04-23T10:15:22.499Z,3344.00
2023-04-23T10:16:25.424Z,3492.00
2023-04-23T10:17:23.444Z,3728.00
2023-04-23T10:18:22.422Z,3876.00
2023-04-23T10:19:22.408Z,3988.00
2023-04-23T10:20:22.436Z,4184.00
2023-04-23T10:21:22.412Z,4376.00
2023-04-23T10:22:22.372Z,4588.00
2023-04-23T10:23:22.370Z,4712.00
2023-04-23T10:24:22.382Z,4732.00
2023-04-23T10:25:22.363Z,4808.00
2023-04-23T10:26:22.350Z,4940.00
2023-04-23T10:27:30.711Z,5004.00
2023-04-23T10:28:23.328Z,5020.00
2023-04-23T10:29:22.298Z,5076.00
2023-04-23T10:30:22.389Z,5052.00
2023-04-23T10:31:22.311Z,4720.00
2023-04-23T10:32:22.333Z,4268.00
2023-04-23T10:33:29.509Z,3976.00
2023-04-23T10:34:23.285Z,3696.00
2023-04-23T10:35:22.263Z,3480.00
2023-04-23T10:36:22.225Z,3440.00
2023-04-23T10:37:22.233Z,3464.00
2023-04-23T10:38:22.221Z,3452.00
2023-04-23T10:39:29.770Z,3444.00
2023-04-23T10:40:23.194Z,3420.00
2023-04-23T10:41:22.171Z,3336.00
2023-04-23T10:42:22.194Z,3180.00
2023-04-23T10:43:22.156Z,3092.00
2023-04-23T10:44:44.944Z,2988.00
2023-04-23T10:45:25.146Z,2980.00
2023-04-23T10:46:22.206Z,3180.00
2023-04-23T10:47:22.128Z,3468.00
2023-04-23T10:48:22.094Z,3588.00
2023-04-23T10:49:22.077Z,3372.00
2023-04-23T10:50:22.939Z,3376.00
2023-04-23T10:52:25.329Z,3268.00
2023-04-23T10:53:22.051Z,3108.00
2023-04-23T10:54:22.058Z,3228.00
2023-04-23T10:55:22.014Z,3244.00
2023-04-23T10:56:22.002Z,3256.00
2023-04-23T10:57:22.033Z,3428.00
2023-04-23T10:58:21.978Z,3364.00
2023-04-23T10:59:21.978Z,3340.00
2023-04-23T11:00:21.960Z,3376.00
2023-04-23T11:01:22.050Z,3076.00
2023-04-23T11:02:22.138Z,2860.00
2023-04-23T11:03:22.003Z,2764.00
2023-04-23T11:04:22.168Z,2516.00
2023-04-23T11:05:21.942Z,2368.00
2023-04-23T11:06:21.893Z,2296.00
2023-04-23T11:07:21.875Z,2340.00
2023-04-23T11:08:21.891Z,2228.00
2023-04-23T11:09:21.899Z,2096.00
2023-04-23T11:10:21.873Z,1980.00
2023-04-23T11:11:21.833Z,1988.00
2023-04-23T11:12:21.858Z,2116.00
2023-04-23T11:13:21.826Z,2140.00
2023-04-23T11:14:21.811Z,2084.00
2023-04-23T11:15:21.825Z,2216.00
2023-04-23T11:16:21.889Z,2484.00
2023-04-23T11:17:21.796Z,2780.00
2023-04-23T11:18:21.792Z,3076.00
2023-04-23T11:19:21.745Z,3124.00
2023-04-23T11:20:21.729Z,3248.00
2023-04-23T11:21:21.751Z,3528.00
2023-04-23T11:22:21.730Z,3720.00
2023-04-23T11:23:21.713Z,3992.00
2023-04-23T11:24:21.705Z,4684.00
2023-04-23T11:25:21.690Z,4644.00
2023-04-23T11:26:21.682Z,4684.00
2023-04-23T11:27:21.669Z,4676.00
2023-04-23T11:28:21.662Z,4612.00
2023-04-23T11:29:21.641Z,4620.00
2023-04-23T11:30:21.618Z,4372.00
2023-04-23T11:31:21.665Z,4080.00
2023-04-23T11:32:21.771Z,3788.00
2023-04-23T11:33:21.635Z,3548.00
2023-04-23T11:34:21.575Z,3396.00
2023-04-23T11:35:21.561Z,3360.00
2023-04-23T11:36:21.555Z,3456.00
2023-04-23T11:37:21.560Z,3472.00
2023-04-23T11:38:21.527Z,3444.00
2023-04-23T11:39:21.534Z,3284.00
2023-04-23T11:40:21.507Z,3044.00
2023-04-23T11:41:21.571Z,2924.00
2023-04-23T11:42:21.500Z,2848.00
2023-04-23T11:43:21.514Z,2820.00
2023-04-23T11:44:21.485Z,2740.00
2023-04-23T11:45:21.475Z,2576.00
2023-04-23T11:46:21.437Z,2368.00
2023-04-23T11:47:21.457Z,2188.00
2023-04-23T11:48:21.450Z,1996.00
2023-04-23T11:49:21.406Z,2012.00
2023-04-23T11:50:21.402Z,2300.00
2023-04-23T11:51:21.399Z,2596.00
2023-04-23T11:52:21.393Z,2812.00
2023-04-23T11:53:21.359Z,2972.00
2023-04-23T11:54:21.414Z,3248.00
2023-04-23T11:55:21.343Z,3548.00
2023-04-23T11:56:21.334Z,3560.00
2023-04-23T11:57:21.353Z,3496.00
2023-04-23T11:58:21.313Z,3344.00
2023-04-23T11:59:21.293Z,3252.00
2023-04-23T12:00:21.347Z,3352.00
2023-04-23T12:01:21.271Z,3408.00
2023-04-23T12:02:21.421Z,3448.00
2023-04-23T12:03:21.400Z,3556.00
2023-04-23T12:04:21.416Z,3596.00
2023-04-23T12:05:21.256Z,3544.00
2023-04-23T12:06:21.232Z,3456.00
2023-04-23T12:07:26.348Z,3416.00
2023-04-23T12:08:22.189Z,3368.00
2023-04-23T12:09:21.230Z,3340.00
2023-04-23T12:10:21.173Z,3324.00
2023-04-23T12:11:21.164Z,3320.00
2023-04-23T12:12:21.157Z,3336.00
2023-04-23T12:13:21.176Z,3280.00
2023-04-23T12:14:21.126Z,3208.00
2023-04-23T12:15:21.149Z,3144.00
2023-04-23T12:16:21.662Z,3000.00
2023-04-23T12:17:21.114Z,3020.00
2023-04-23T12:18:21.071Z,3144.00
2023-04-23T12:19:21.090Z,3140.00
2023-04-23T12:20:21.067Z,3016.00
2023-04-23T12:21:21.092Z,2820.00
2023-04-23T12:22:21.089Z,2636.00
2023-04-23T12:23:21.043Z,2392.00
2023-04-23T12:24:21.044Z,2272.00
2023-04-23T12:25:21.006Z,2240.00
2023-04-23T12:26:21.004Z,2204.00
2023-04-23T12:27:20.973Z,2300.00
2023-04-23T12:28:21.006Z,2232.00
2023-04-23T12:29:20.981Z,2004.00
2023-04-23T12:30:20.965Z,1736.00
2023-04-23T12:31:20.950Z,1460.00